sensor_id;sensor_type;location;lat;lon;timestamp;pressure;altitude;pressure_sealevel;temperature;humidity
71643;BME280;59438;45.014;39.006;2023-05-02T00:00:27;101724.94;;;10.39;77.20
71643;BME280;59438;45.014;39.006;2023-05-02T00:02:54;101733.75;;;10.38;77.06
71643;BME280;59438;45.014;39.006;2023-05-02T00:05:21;101730.28;;;10.36;76.45
71643;BME280;59438;45.014;39.006;2023-05-02T00:07:47;101718.03;;;10.35;77.27
71643;BME280;59438;45.014;39.006;2023-05-02T00:10:15;101737.31;;;10.34;77.32
71643;BME280;59438;45.014;39.006;2023-05-02T00:12:42;101721.63;;;10.31;76.73
71643;BME280;59438;45.014;39.006;2023-05-02T00:15:08;101730.38;;;10.28;77.14
71643;BME280;59438;45.014;39.006;2023-05-02T00:17:35;101726.06;;;10.25;77.30
71643;BME280;59438;45.014;39.006;2023-05-02T00:20:01;101730.50;;;10.23;76.98
71643;BME280;59438;45.014;39.006;2023-05-02T00:22:27;101729.66;;;10.20;76.82
71643;BME280;59438;45.014;39.006;2023-05-02T00:24:55;101731.38;;;10.21;77.86
71643;BME280;59438;45.014;39.006;2023-05-02T00:27:23;101728.81;;;10.19;77.79
71643;BME280;59438;45.014;39.006;2023-05-02T00:29:49;101727.06;;;10.18;77.34
71643;BME280;59438;45.014;39.006;2023-05-02T00:32:16;101720.06;;;10.19;77.90
71643;BME280;59438;45.014;39.006;2023-05-02T00:34:42;101720.06;;;10.19;77.12
71643;BME280;59438;45.014;39.006;2023-05-02T00:37:09;101714.78;;;10.19;77.08
71643;BME280;59438;45.014;39.006;2023-05-02T00:39:35;101721.81;;;10.18;78.15
71643;BME280;59438;45.014;39.006;2023-05-02T00:42:02;101721.78;;;10.20;77.76
71643;BME280;59438;45.014;39.006;2023-05-02T00:44:30;101723.50;;;10.22;77.74
71643;BME280;59438;45.014;39.006;2023-05-02T00:46:56;101712.13;;;10.22;77.47
71643;BME280;59438;45.014;39.006;2023-05-02T00:49:23;101733.03;;;10.26;77.61
71643;BME280;59438;45.014;39.006;2023-05-02T00:51:50;101726.00;;;10.27;77.57
71643;BME280;59438;45.014;39.006;2023-05-02T00:54:16;101726.84;;;10.29;77.98
71643;BME280;59438;45.014;39.006;2023-05-02T00:56:42;101720.75;;;10.28;78.30
71643;BME280;59438;45.014;39.006;2023-05-02T00:59:09;101725.09;;;10.31;78.19
71643;BME280;59438;45.014;39.006;2023-05-02T01:01:52;101725.09;;;10.31;79.18
71643;BME280;59438;45.014;39.006;2023-05-02T01:04:31;101735.56;;;10.33;79.45
71643;BME280;59438;45.014;39.006;2023-05-02T01:07:14;101725.94;;;10.33;78.26
71643;BME280;59438;45.014;39.006;2023-05-02T01:09:53;101705.22;;;10.16;78.92
71643;BME280;59438;45.014;39.006;2023-05-02T01:12:26;101733.88;;;10.32;78.53
71643;BME280;59438;45.014;39.006;2023-05-02T01:14:55;101734.75;;;10.31;78.43
71643;BME280;59438;45.014;39.006;2023-05-02T01:17:26;101732.13;;;10.31;77.67
71643;BME280;59438;45.014;39.006;2023-05-02T01:19:56;101719.06;;;10.24;77.59
71643;BME280;59438;45.014;39.006;2023-05-02T01:22:23;101727.75;;;10.28;78.04
71643;BME280;59438;45.014;39.006;2023-05-02T01:24:57;101720.75;;;10.27;78.58
71643;BME280;59438;45.014;39.006;2023-05-02T01:27:33;101700.94;;;10.12;78.21
71643;BME280;59438;45.014;39.006;2023-05-02T01:30:05;101719.06;;;10.26;78.40
71643;BME280;59438;45.014;39.006;2023-05-02T01:32:34;101712.94;;;10.25;78.17
71643;BME280;59438;45.014;39.006;2023-05-02T01:35:03;101721.69;;;10.26;78.00
71643;BME280;59438;45.014;39.006;2023-05-02T01:37:30;101720.75;;;10.27;78.01
71643;BME280;59438;45.014;39.006;2023-05-02T01:39:58;101716.41;;;10.27;77.99
71643;BME280;59438;45.014;39.006;2023-05-02T01:42:25;101719.91;;;10.26;78.71
71643;BME280;59438;45.014;39.006;2023-05-02T01:44:53;101718.13;;;10.28;78.26
71643;BME280;59438;45.014;39.006;2023-05-02T01:47:23;101714.63;;;10.28;78.69
71643;BME280;59438;45.014;39.006;2023-05-02T01:49:50;101722.44;;;10.33;77.76
71643;BME280;59438;45.014;39.006;2023-05-02T01:52:20;101719.81;;;10.33;78.38
71643;BME280;59438;45.014;39.006;2023-05-02T01:54:50;101720.69;;;10.33;78.20
71643;BME280;59438;45.014;39.006;2023-05-02T01:57:17;101725.06;;;10.33;77.84
71643;BME280;59438;45.014;39.006;2023-05-02T01:59:45;101720.75;;;10.27;77.93
71643;BME280;59438;45.014;39.006;2023-05-02T02:02:13;101736.44;;;10.33;78.04
71643;BME280;59438;45.014;39.006;2023-05-02T02:04:43;101726.88;;;10.31;79.39
71643;BME280;59438;45.014;39.006;2023-05-02T02:07:12;101727.69;;;10.34;78.67
71643;BME280;59438;45.014;39.006;2023-05-02T02:09:39;101728.53;;;10.35;78.71
71643;BME280;59438;45.014;39.006;2023-05-02T02:12:11;101728.53;;;10.35;78.50
71643;BME280;59438;45.014;39.006;2023-05-02T02:14:40;101720.69;;;10.33;78.75
71643;BME280;59438;45.014;39.006;2023-05-02T02:17:12;101707.72;;;10.22;78.19
71643;BME280;59438;45.014;39.006;2023-05-02T02:19:42;101727.72;;;10.31;78.45
71643;BME280;59438;45.014;39.006;2023-05-02T02:22:10;101726.88;;;10.31;78.28
71643;BME280;59438;45.014;39.006;2023-05-02T02:24:39;101731.25;;;10.28;78.48
71643;BME280;59438;45.014;39.006;2023-05-02T02:27:06;101726.00;;;10.27;78.85
71643;BME280;59438;45.014;39.006;2023-05-02T02:29:32;101733.03;;;10.26;77.94
71643;BME280;59438;45.014;39.006;2023-05-02T02:31:58;101730.41;;;10.26;78.24
71643;BME280;59438;45.014;39.006;2023-05-02T02:34:25;101734.81;;;10.26;78.42
71643;BME280;59438;45.014;39.006;2023-05-02T02:36:56;101740.06;;;10.26;79.70
71643;BME280;59438;45.014;39.006;2023-05-02T02:39:38;101736.59;;;10.24;79.52
71643;BME280;59438;45.014;39.006;2023-05-02T02:42:11;101727.13;;;10.15;79.29
71643;BME280;59438;45.014;39.006;2023-05-02T02:44:46;101743.53;;;10.26;78.71
71643;BME280;59438;45.014;39.006;2023-05-02T02:47:22;101757.53;;;10.30;78.79
71643;BME280;59438;45.014;39.006;2023-05-02T02:49:59;101755.75;;;10.31;78.72
71643;BME280;59438;45.014;39.006;2023-05-02T02:52:41;101753.97;;;10.33;79.71
71643;BME280;59438;45.014;39.006;2023-05-02T02:55:16;101761.78;;;10.36;78.73
71643;BME280;59438;45.014;39.006;2023-05-02T02:57:49;101765.25;;;10.38;78.64
71643;BME280;59438;45.014;39.006;2023-05-02T03:00:19;101759.94;;;10.39;78.87
71643;BME280;59438;45.014;39.006;2023-05-02T03:02:46;101767.75;;;10.44;78.35
71643;BME280;59438;45.014;39.006;2023-05-02T03:05:13;101760.66;;;10.47;78.72
71643;BME280;59438;45.014;39.006;2023-05-02T03:07:41;101768.50;;;10.51;78.86
71643;BME280;59438;45.014;39.006;2023-05-02T03:10:08;101766.66;;;10.54;78.23
71643;BME280;59438;45.014;39.006;2023-05-02T03:12:35;101761.41;;;10.54;78.99
71643;BME280;59438;45.014;39.006;2023-05-02T03:15:13;101763.88;;;10.62;78.92
71643;BME280;59438;45.014;39.006;2023-05-02T03:17:40;101767.31;;;10.65;78.46
71643;BME280;59438;45.014;39.006;2023-05-02T03:20:07;101770.75;;;10.69;78.73
71643;BME280;59438;45.014;39.006;2023-05-02T03:22:33;101778.53;;;10.74;78.60
71643;BME280;59438;45.014;39.006;2023-05-02T03:25:01;101773.19;;;10.78;78.44
71643;BME280;59438;45.014;39.006;2023-05-02T03:27:27;101775.72;;;10.83;77.87
71643;BME280;59438;45.014;39.006;2023-05-02T03:29:54;101777.34;;;10.88;77.41
71643;BME280;59438;45.014;39.006;2023-05-02T03:32:20;101776.38;;;10.94;77.92
71643;BME280;59438;45.014;39.006;2023-05-02T03:34:46;101785.06;;;10.98;77.54
71643;BME280;59438;45.014;39.006;2023-05-02T03:37:13;101790.22;;;11.02;77.79
71643;BME280;59438;45.014;39.006;2023-05-02T03:39:39;101791.00;;;11.06;77.54
71643;BME280;59438;45.014;39.006;2023-05-02T03:42:07;101798.84;;;11.07;77.63
71643;BME280;59438;45.014;39.006;2023-05-02T03:44:33;101794.41;;;11.11;76.80
71643;BME280;59438;45.014;39.006;2023-05-02T03:47:00;101793.47;;;11.14;77.25
71643;BME280;59438;45.014;39.006;2023-05-02T03:49:26;101803.94;;;11.15;76.85
71643;BME280;59438;45.014;39.006;2023-05-02T03:51:52;101796.88;;;11.19;77.20
71643;BME280;59438;45.014;39.006;2023-05-02T03:54:19;101805.59;;;11.21;76.60
71643;BME280;59438;45.014;39.006;2023-05-02T03:56:45;101795.06;;;11.21;76.65
71643;BME280;59438;45.014;39.006;2023-05-02T03:59:13;101808.81;;;11.32;76.82
71643;BME280;59438;45.014;39.006;2023-05-02T04:01:39;101811.28;;;11.40;76.37
71643;BME280;59438;45.014;39.006;2023-05-02T04:04:06;101809.31;;;11.49;76.66
71643;BME280;59438;45.014;39.006;2023-05-02T04:06:32;101805.59;;;11.58;77.10
71643;BME280;59438;45.014;39.006;2023-05-02T04:08:58;101812.41;;;11.67;76.20
71643;BME280;59438;45.014;39.006;2023-05-02T04:11:25;101815.66;;;11.78;76.08
71643;BME280;59438;45.014;39.006;2023-05-02T04:13:52;101819.00;;;11.85;75.60
71643;BME280;59438;45.014;39.006;2023-05-02T04:16:20;101816.22;;;11.93;75.93
71643;BME280;59438;45.014;39.006;2023-05-02T04:18:46;101830.06;;;12.01;76.02
71643;BME280;59438;45.014;39.006;2023-05-02T04:21:13;101830.72;;;12.09;75.89
71643;BME280;59438;45.014;39.006;2023-05-02T04:23:39;101830.47;;;12.18;75.52
71643;BME280;59438;45.014;39.006;2023-05-02T04:26:06;101836.41;;;12.26;75.38
71643;BME280;59438;45.014;39.006;2023-05-02T04:28:32;101833.59;;;12.34;74.95
71643;BME280;59438;45.014;39.006;2023-05-02T04:30:58;101842.16;;;12.42;74.96
71643;BME280;59438;45.014;39.006;2023-05-02T04:33:26;101833.38;;;12.42;74.58
71643;BME280;59438;45.014;39.006;2023-05-02T04:35:52;101846.28;;;12.53;74.56
71643;BME280;59438;45.014;39.006;2023-05-02T04:38:19;101844.31;;;12.59;74.28
71643;BME280;59438;45.014;39.006;2023-05-02T04:40:45;101852.03;;;12.67;74.28
71643;BME280;59438;45.014;39.006;2023-05-02T04:43:11;101855.34;;;12.74;74.01
71643;BME280;59438;45.014;39.006;2023-05-02T04:45:38;101856.09;;;12.79;73.67
71643;BME280;59438;45.014;39.006;2023-05-02T04:48:04;101861.16;;;12.86;73.59
71643;BME280;59438;45.014;39.006;2023-05-02T04:50:32;101862.69;;;12.95;73.26
71643;BME280;59438;45.014;39.006;2023-05-02T04:52:59;101865.06;;;13.03;73.17
71643;BME280;59438;45.014;39.006;2023-05-02T04:55:25;101858.75;;;13.08;73.01
71643;BME280;59438;45.014;39.006;2023-05-02T04:57:51;101863.75;;;13.18;72.92
71643;BME280;59438;45.014;39.006;2023-05-02T05:00:18;101864.41;;;13.26;72.83
71643;BME280;59438;45.014;39.006;2023-05-02T05:02:44;101865.22;;;13.29;72.26
71643;BME280;59438;45.014;39.006;2023-05-02T05:05:11;101868.53;;;13.36;71.94
71643;BME280;59438;45.014;39.006;2023-05-02T05:07:39;101875.31;;;13.45;72.09
71643;BME280;59438;45.014;39.006;2023-05-02T05:10:06;101868.84;;;13.55;71.82
71643;BME280;59438;45.014;39.006;2023-05-02T05:12:33;101876.38;;;13.67;71.87
71643;BME280;59438;45.014;39.006;2023-05-02T05:14:59;101866.47;;;13.74;71.58
71643;BME280;59438;45.014;39.006;2023-05-02T05:17:25;101875.72;;;13.87;71.09
71643;BME280;59438;45.014;39.006;2023-05-02T05:19:52;101879.06;;;13.94;70.84
71643;BME280;59438;45.014;39.006;2023-05-02T05:22:18;101877.03;;;14.02;70.58
71643;BME280;59438;45.014;39.006;2023-05-02T05:24:51;101875.94;;;14.35;70.09
71643;BME280;59438;45.014;39.006;2023-05-02T05:27:18;101884.19;;;14.77;70.01
71643;BME280;59438;45.014;39.006;2023-05-02T05:29:44;101881.84;;;14.93;69.09
71643;BME280;59438;45.014;39.006;2023-05-02T05:32:10;101882.59;;;14.97;68.78
71643;BME280;59438;45.014;39.006;2023-05-02T05:34:37;101890.69;;;14.92;68.33
71643;BME280;59438;45.014;39.006;2023-05-02T05:37:03;101884.00;;;14.82;68.05
71643;BME280;59438;45.014;39.006;2023-05-02T05:39:30;101890.47;;;14.75;68.13
71643;BME280;59438;45.014;39.006;2023-05-02T05:41:57;101883.59;;;14.69;67.74
71643;BME280;59438;45.014;39.006;2023-05-02T05:44:24;101888.97;;;14.66;68.26
71643;BME280;59438;45.014;39.006;2023-05-02T05:46:50;101895.28;;;14.62;68.11
71643;BME280;59438;45.014;39.006;2023-05-02T05:49:17;101898.97;;;14.58;68.19
71643;BME280;59438;45.014;39.006;2023-05-02T05:51:43;101901.75;;;14.53;67.89
71643;BME280;59438;45.014;39.006;2023-05-02T05:54:09;101896.56;;;14.50;68.21
71643;BME280;59438;45.014;39.006;2023-05-02T05:56:36;101892.22;;;14.47;67.93
71643;BME280;59438;45.014;39.006;2023-05-02T05:59:04;101896.78;;;14.44;67.53
71643;BME280;59438;45.014;39.006;2023-05-02T06:01:30;101902.13;;;14.42;67.77
71643;BME280;59438;45.014;39.006;2023-05-02T06:03:56;101894.19;;;14.42;68.18
71643;BME280;59438;45.014;39.006;2023-05-02T06:06:23;101903.91;;;14.42;68.21
71643;BME280;59438;45.014;39.006;2023-05-02T06:08:49;101903.09;;;14.40;68.42
71643;BME280;59438;45.014;39.006;2023-05-02T06:11:15;101904.75;;;14.42;68.15
71643;BME280;59438;45.014;39.006;2023-05-02T06:13:42;101904.59;;;14.47;68.03
71643;BME280;59438;45.014;39.006;2023-05-02T06:16:09;101906.16;;;14.52;67.87
71643;BME280;59438;45.014;39.006;2023-05-02T06:18:36;101906.97;;;14.56;67.72
71643;BME280;59438;45.014;39.006;2023-05-02T06:21:03;101916.41;;;14.63;67.71
71643;BME280;59438;45.014;39.006;2023-05-02T06:23:29;101914.34;;;14.71;67.43
71643;BME280;59438;45.014;39.006;2023-05-02T06:25:58;101908.69;;;14.82;66.57
71643;BME280;59438;45.014;39.006;2023-05-02T06:28:24;101900.25;;;14.96;67.47
71643;BME280;59438;45.014;39.006;2023-05-02T06:30:56;101902.28;;;15.13;66.63
71643;BME280;59438;45.014;39.006;2023-05-02T06:33:24;101896.41;;;15.28;65.85
71643;BME280;59438;45.014;39.006;2023-05-02T06:35:50;101901.19;;;15.42;66.37
71643;BME280;59438;45.014;39.006;2023-05-02T06:38:17;101901.63;;;15.54;65.76
71643;BME280;59438;45.014;39.006;2023-05-02T06:40:43;101910.03;;;15.65;65.43
71643;BME280;59438;45.014;39.006;2023-05-02T06:43:10;101909.78;;;15.71;65.32
71643;BME280;59438;45.014;39.006;2023-05-02T06:45:36;101904.34;;;15.76;65.58
71643;BME280;59438;45.014;39.006;2023-05-02T06:48:02;101910.44;;;15.78;65.13
71643;BME280;59438;45.014;39.006;2023-05-02T06:50:30;101912.09;;;15.80;64.08
71643;BME280;59438;45.014;39.006;2023-05-02T06:52:57;101914.81;;;15.79;64.75
71643;BME280;59438;45.014;39.006;2023-05-02T06:55:23;101910.34;;;15.79;64.90
71643;BME280;59438;45.014;39.006;2023-05-02T06:57:50;101912.16;;;15.79;64.82
71643;BME280;59438;45.014;39.006;2023-05-02T07:00:17;101915.09;;;15.71;64.83
71643;BME280;59438;45.014;39.006;2023-05-02T07:02:45;101919.75;;;15.64;64.58
71643;BME280;59438;45.014;39.006;2023-05-02T07:05:11;101919.25;;;15.55;64.93
71643;BME280;59438;45.014;39.006;2023-05-02T07:07:39;101926.50;;;15.49;65.10
71643;BME280;59438;45.014;39.006;2023-05-02T07:10:06;101937.28;;;15.45;64.96
71643;BME280;59438;45.014;39.006;2023-05-02T07:12:33;101927.78;;;15.39;65.09
71643;BME280;59438;45.014;39.006;2023-05-02T07:15:00;101927.72;;;15.41;65.52
71643;BME280;59438;45.014;39.006;2023-05-02T07:17:26;101945.28;;;15.43;64.78
71643;BME280;59438;45.014;39.006;2023-05-02T07:19:53;101939.88;;;15.46;65.24
71643;BME280;59438;45.014;39.006;2023-05-02T07:22:20;101939.75;;;15.49;64.72
71643;BME280;59438;45.014;39.006;2023-05-02T07:24:48;101938.75;;;15.52;63.97
71643;BME280;59438;45.014;39.006;2023-05-02T07:27:14;101939.50;;;15.56;64.64
71643;BME280;59438;45.014;39.006;2023-05-02T07:29:40;101936.75;;;15.59;64.02
71643;BME280;59438;45.014;39.006;2023-05-02T07:32:06;101939.31;;;15.60;64.28
71643;BME280;59438;45.014;39.006;2023-05-02T07:34:33;101938.38;;;15.63;64.17
71643;BME280;59438;45.014;39.006;2023-05-02T07:36:59;101945.28;;;15.67;64.20
71643;BME280;59438;45.014;39.006;2023-05-02T07:39:26;101942.44;;;15.71;64.01
71643;BME280;59438;45.014;39.006;2023-05-02T07:41:53;101944.13;;;15.74;63.40
71643;BME280;59438;45.014;39.006;2023-05-02T07:44:20;101939.50;;;15.79;63.68
71643;BME280;59438;45.014;39.006;2023-05-02T07:46:46;101934.94;;;15.83;63.34
71643;BME280;59438;45.014;39.006;2023-05-02T07:49:13;101934.09;;;15.82;63.40
71643;BME280;59438;45.014;39.006;2023-05-02T07:51:39;101931.31;;;15.85;63.54
71643;BME280;59438;45.014;39.006;2023-05-02T07:54:14;101946.84;;;15.95;62.78
71643;BME280;59438;45.014;39.006;2023-05-02T07:56:41;101943.09;;;16.00;63.11
71643;BME280;59438;45.014;39.006;2023-05-02T07:59:09;101941.25;;;16.02;62.23
71643;BME280;59438;45.014;39.006;2023-05-02T08:01:35;101943.78;;;16.05;62.33
71643;BME280;59438;45.014;39.006;2023-05-02T08:04:02;101934.72;;;16.11;62.54
71643;BME280;59438;45.014;39.006;2023-05-02T08:06:28;101938.03;;;16.16;62.38
71643;BME280;59438;45.014;39.006;2023-05-02T08:08:55;101941.38;;;16.21;62.05
71643;BME280;59438;45.014;39.006;2023-05-02T08:11:21;101935.66;;;16.30;61.44
71643;BME280;59438;45.014;39.006;2023-05-02T08:13:48;101927.53;;;16.35;61.27
71643;BME280;59438;45.014;39.006;2023-05-02T08:16:16;101927.53;;;16.35;59.84
71643;BME280;59438;45.014;39.006;2023-05-02T08:18:42;101918.41;;;16.20;60.78
71643;BME280;59438;45.014;39.006;2023-05-02T08:21:08;101922.81;;;16.21;61.12
71643;BME280;59438;45.014;39.006;2023-05-02T08:23:35;101936.31;;;16.15;61.51
71643;BME280;59438;45.014;39.006;2023-05-02T08:26:01;101925.81;;;16.12;61.22
71643;BME280;59438;45.014;39.006;2023-05-02T08:28:27;101927.56;;;16.13;61.76
71643;BME280;59438;45.014;39.006;2023-05-02T08:30:54;101925.50;;;16.20;61.41
71643;BME280;59438;45.014;39.006;2023-05-02T08:33:22;101928.66;;;16.29;60.58
71643;BME280;59438;45.014;39.006;2023-05-02T08:35:48;101925.59;;;16.39;60.98
71643;BME280;59438;45.014;39.006;2023-05-02T08:38:15;101926.16;;;16.47;60.67
71643;BME280;59438;45.014;39.006;2023-05-02T08:40:41;101921.38;;;16.55;60.72
71643;BME280;59438;45.014;39.006;2023-05-02T08:43:07;101923.84;;;16.60;60.26
71643;BME280;59438;45.014;39.006;2023-05-02T08:45:38;101924.50;;;16.65;59.06
71643;BME280;59438;45.014;39.006;2023-05-02T08:48:06;101926.31;;;16.64;59.81
71643;BME280;59438;45.014;39.006;2023-05-02T08:50:36;101923.59;;;16.66;58.56
71643;BME280;59438;45.014;39.006;2023-05-02T08:53:04;101913.69;;;16.69;59.71
71643;BME280;59438;45.014;39.006;2023-05-02T08:55:31;101921.25;;;16.79;58.88
71643;BME280;59438;45.014;39.006;2023-05-02T08:57:59;101914.59;;;16.90;58.83
71643;BME280;59438;45.014;39.006;2023-05-02T09:00:26;101905.19;;;17.02;58.37
71643;BME280;59438;45.014;39.006;2023-05-02T09:03:03;101908.88;;;17.19;56.63
71643;BME280;59438;45.014;39.006;2023-05-02T09:05:32;101904.88;;;17.29;57.42
71643;BME280;59438;45.014;39.006;2023-05-02T09:08:06;101905.25;;;17.40;56.57
71643;BME280;59438;45.014;39.006;2023-05-02T09:10:34;101912.78;;;17.49;57.11
71643;BME280;59438;45.014;39.006;2023-05-02T09:13:30;101900.00;;;17.58;56.05
71643;BME280;59438;45.014;39.006;2023-05-02T09:15:58;101903.31;;;17.63;57.33
71643;BME280;59438;45.014;39.006;2023-05-02T09:18:27;101905.72;;;17.67;56.58
71643;BME280;59438;45.014;39.006;2023-05-02T09:20:54;101895.72;;;17.72;57.36
71643;BME280;59438;45.014;39.006;2023-05-02T09:23:31;101903.63;;;17.74;56.20
71643;BME280;59438;45.014;39.006;2023-05-02T09:25:58;101906.28;;;17.74;56.52
71643;BME280;59438;45.014;39.006;2023-05-02T09:28:37;101901.81;;;17.75;56.10
71643;BME280;59438;45.014;39.006;2023-05-02T09:31:06;101901.63;;;17.79;56.27
71643;BME280;59438;45.014;39.006;2023-05-02T09:33:32;101899.41;;;17.89;56.74
71643;BME280;59438;45.014;39.006;2023-05-02T09:35:59;101908.88;;;17.95;56.61
71643;BME280;59438;45.014;39.006;2023-05-02T09:38:26;101900.13;;;17.92;55.71
71643;BME280;59438;45.014;39.006;2023-05-02T09:40:53;101909.91;;;17.92;55.95
71643;BME280;59438;45.014;39.006;2023-05-02T09:43:20;101905.91;;;17.83;55.41
71643;BME280;59438;45.014;39.006;2023-05-02T09:45:56;101911.59;;;17.74;53.68
71643;BME280;59438;45.014;39.006;2023-05-02T09:48:22;101910.63;;;17.58;55.38
71643;BME280;59438;45.014;39.006;2023-05-02T09:50:49;101902.72;;;17.37;55.49
71643;BME280;59438;45.014;39.006;2023-05-02T09:53:16;101903.44;;;17.22;55.93
71643;BME280;59438;45.014;39.006;2023-05-02T09:55:44;101912.47;;;17.18;55.80
71643;BME280;59438;45.014;39.006;2023-05-02T09:58:19;101909.38;;;17.08;55.49
71643;BME280;59438;45.014;39.006;2023-05-02T10:00:46;101908.91;;;16.98;56.76
71643;BME280;59438;45.014;39.006;2023-05-02T10:03:15;101908.56;;;16.87;55.78
71643;BME280;59438;45.014;39.006;2023-05-02T10:05:43;101910.25;;;16.88;56.45
71643;BME280;59438;45.014;39.006;2023-05-02T10:08:10;101915.28;;;16.73;56.66
71643;BME280;59438;45.014;39.006;2023-05-02T10:10:38;101897.25;;;16.61;56.51
71643;BME280;59438;45.014;39.006;2023-05-02T10:13:07;101906.25;;;16.57;55.66
71643;BME280;59438;45.014;39.006;2023-05-02T10:15:36;101909.13;;;16.52;55.78
71643;BME280;59438;45.014;39.006;2023-05-02T10:18:11;101907.56;;;16.47;55.70
71643;BME280;59438;45.014;39.006;2023-05-02T10:20:42;101921.63;;;16.49;56.21
71643;BME280;59438;45.014;39.006;2023-05-02T10:23:09;101919.78;;;16.51;56.60
71643;BME280;59438;45.014;39.006;2023-05-02T10:25:35;101913.41;;;16.55;56.58
71643;BME280;59438;45.014;39.006;2023-05-02T10:28:03;101910.38;;;16.64;56.97
71643;BME280;59438;45.014;39.006;2023-05-02T10:30:32;101915.22;;;16.75;55.59
71643;BME280;59438;45.014;39.006;2023-05-02T10:33:02;101914.91;;;16.83;55.25
71643;BME280;59438;45.014;39.006;2023-05-02T10:35:30;101914.78;;;16.86;55.62
71643;BME280;59438;45.014;39.006;2023-05-02T10:37:57;101900.16;;;16.76;55.79
71643;BME280;59438;45.014;39.006;2023-05-02T10:40:25;101917.66;;;16.80;55.87
71643;BME280;59438;45.014;39.006;2023-05-02T10:42:52;101910.84;;;16.74;55.56
71643;BME280;59438;45.014;39.006;2023-05-02T10:45:34;101913.63;;;16.71;54.82
71643;BME280;59438;45.014;39.006;2023-05-02T10:48:17;101915.53;;;16.67;54.85
71643;BME280;59438;45.014;39.006;2023-05-02T10:50:48;101919.25;;;16.63;54.66
71643;BME280;59438;45.014;39.006;2023-05-02T10:53:24;101916.50;;;16.66;56.01
71643;BME280;59438;45.014;39.006;2023-05-02T10:56:13;101903.06;;;16.49;55.68
71643;BME280;59438;45.014;39.006;2023-05-02T10:58:40;101920.47;;;16.56;55.62
71643;BME280;59438;45.014;39.006;2023-05-02T11:01:37;101921.59;;;16.50;54.97
71643;BME280;59438;45.014;39.006;2023-05-02T11:04:05;101919.19;;;16.44;55.55
71643;BME280;59438;45.014;39.006;2023-05-02T11:06:32;101925.59;;;16.39;55.76
71643;BME280;59438;45.014;39.006;2023-05-02T11:09:30;101925.50;;;16.42;55.11
71643;BME280;59438;45.014;39.006;2023-05-02T11:11:57;101930.78;;;16.42;55.50
71643;BME280;59438;45.014;39.006;2023-05-02T11:14:42;101934.97;;;16.47;54.72
71643;BME280;59438;45.014;39.006;2023-05-02T11:17:11;101935.78;;;16.49;54.77
71643;BME280;59438;45.014;39.006;2023-05-02T11:22:49;101956.53;;;16.60;55.16
71643;BME280;59438;45.014;39.006;2023-05-02T11:25:35;101940.88;;;16.54;54.19
71643;BME280;59438;45.014;39.006;2023-05-02T11:28:04;101954.28;;;16.71;54.48
71643;BME280;59438;45.014;39.006;2023-05-02T11:30:42;101959.41;;;16.76;53.79
71643;BME280;59438;45.014;39.006;2023-05-02T11:33:17;101958.97;;;16.87;53.43
71643;BME280;59438;45.014;39.006;2023-05-02T11:35:47;101946.81;;;16.81;54.45
71643;BME280;59438;45.014;39.006;2023-05-02T11:38:15;101947.41;;;16.88;54.37
71643;BME280;59438;45.014;39.006;2023-05-02T11:40:56;101970.44;;;17.08;53.59
71643;BME280;59438;45.014;39.006;2023-05-02T11:43:24;101972.00;;;17.12;54.46
71643;BME280;59438;45.014;39.006;2023-05-02T11:45:51;101971.00;;;17.15;54.01
71643;BME280;59438;45.014;39.006;2023-05-02T11:48:20;101991.25;;;17.17;52.98
71643;BME280;59438;45.014;39.006;2023-05-02T11:50:48;101981.78;;;17.11;52.97
71643;BME280;59438;45.014;39.006;2023-05-02T11:53:15;101967.03;;;17.04;52.68
71643;BME280;59438;45.014;39.006;2023-05-02T11:55:47;101991.41;;;17.14;52.02
71643;BME280;59438;45.014;39.006;2023-05-02T11:58:15;101995.84;;;17.14;52.80
71643;BME280;59438;45.014;39.006;2023-05-02T12:00:42;101980.09;;;17.09;52.56
71643;BME280;59438;45.014;39.006;2023-05-02T12:03:20;101972.28;;;17.06;52.19
71643;BME280;59438;45.014;39.006;2023-05-02T12:05:47;101988.69;;;17.16;53.08
71643;BME280;59438;45.014;39.006;2023-05-02T12:08:17;101991.25;;;17.17;51.77
71643;BME280;59438;45.014;39.006;2023-05-02T12:10:45;101995.56;;;17.20;52.80
71643;BME280;59438;45.014;39.006;2023-05-02T12:13:11;101994.41;;;17.25;53.08
71643;BME280;59438;45.014;39.006;2023-05-02T12:15:37;101992.50;;;17.29;52.51
71643;BME280;59438;45.014;39.006;2023-05-02T12:18:04;101989.72;;;17.32;52.70
71643;BME280;59438;45.014;39.006;2023-05-02T12:20:33;101998.31;;;17.37;52.90
71643;BME280;59438;45.014;39.006;2023-05-02T12:23:00;101995.66;;;17.37;53.45
71643;BME280;59438;45.014;39.006;2023-05-02T12:25:26;101995.56;;;17.40;53.63
71643;BME280;59438;45.014;39.006;2023-05-02T12:27:59;101998.00;;;17.45;53.47
71643;BME280;59438;45.014;39.006;2023-05-02T12:30:25;101996.91;;;17.49;53.86
71643;BME280;59438;45.014;39.006;2023-05-02T12:32:55;101999.41;;;17.52;53.40
71643;BME280;59438;45.014;39.006;2023-05-02T12:35:21;102000.44;;;17.49;53.56
71643;BME280;59438;45.014;39.006;2023-05-02T12:37:49;102000.59;;;17.46;53.66
71643;BME280;59438;45.014;39.006;2023-05-02T12:40:16;102000.59;;;17.46;54.32
71643;BME280;59438;45.014;39.006;2023-05-02T12:42:42;102018.38;;;17.44;54.15
71643;BME280;59438;45.014;39.006;2023-05-02T12:45:22;102007.16;;;17.38;53.96
71643;BME280;59438;45.014;39.006;2023-05-02T12:47:49;102020.06;;;17.26;53.16
71643;BME280;59438;45.014;39.006;2023-05-02T12:50:15;102015.22;;;17.16;53.06